Cheddleton, United Kingdom
Current Conditions -  °F | °C
As of 10:20 AM on Thursday 18 Dec 2014 (Local Time) from EGCC Reporting Station
Broken Clouds Broken Clouds  
Wind Chill: 54°   Ceiling: 3700
Heat Index: 54°   Visibility: 6mi
Dew Point: 50°   Wind: 16mph
Humidity: 88%   Direction: 220°SW
Pressure: 29.62"   Gusts: NA
Location:  53.07°N, 2.04°W
Report Text: EGCC 181020Z 22014KT 9999 FEW011 SCT016 BKN037 12/10 Q1003 NOSIG
Loading
Personal Weather Stations






























Interactive Weather Map New forecast layout! Learn more

10-Day Weather Forecast

Advertisements
Track Severe Weather on mobile